KANE

Anoka County-Blaine Arpt(Janes Field) Airport

Minneapolis, Minnesota, USA

KANE 110855Z AUTO 16008KT 7SM SCT007 SCT022 M02/M03 A2982 RMK AO2

Observed Flight Rules
Dec-11 @ 08:55 UTC (31 minutes ago) Visual Flight Rules
Wind Visibility Clouds
160° at 8 knots 7 miles
  • Scattered at 700' AGL
  • Scattered at 2,200' AGL
Temperatures Readings
Current -2°C / 28°F
Dewpoint -3°C / 27°F
Humidity 93%
Altimeter 29.82" Hg
Pressure 1010 hPa
Elevation 278
Observed Flight Rules
Dec-11 @ 08:55 UTC
(31 minutes ago)
VFR
Wind Visibility
160° at 8 knots 7 miles
Clouds
  • Scattered at 700' AGL
  • Scattered at 2,200' AGL
Temperature Dewpoint
-2°C / 28°F -3°C / 27°F
Humidity Altimeter Pressure
93% 29.82" Hg 1010 hPa